Terminal Aerodrome Forecast
Issued by NWS Topeka, KS

Home | Current Version | Previous Version | Graphics & Text | Print | Product List | Glossary On
Versions: 1 2 3 4 5 6 7 8 9 10 11 12 13 14
679
FTUS43 KTOP 071538 AAA
TAFTOP
TAF AMD
KTOP 071538Z 0716/0812 36008KT P6SM OVC040
      TEMPO 0717/0719 5SM -SN OVC025
     FM072300 32008KT P6SM BKN080=

USA.gov is the U.S. government's official web portal to all federal, state and local government web resources and services.